Time;durP1;ratioP1;P1;durP2;ratioP2;P2;SDS_P1;SDS_P2;PMS_P1;PMS_P2;Temp;Humidity;BMP_temperature;BMP_pressure;BME280_temperature;BME280_humidity;BME280_pressure;Samples;Min_cycle;Max_cycle;Signal;HPM_P1;HPM_P2
2023/07/08 00:00:39;;;;;;;4.47;3.93;;;;;;;16.60;67.27;101438.50;4975704;28;20218;-76
2023/07/08 00:03:06;;;;;;;6.03;4.10;;;;;;;16.58;67.74;101437.31;4972641;28;20607;-75
2023/07/08 00:05:32;;;;;;;6.40;4.37;;;;;;;16.54;66.39;101429.22;4974646;28;20813;-75
2023/07/08 00:07:59;;;;;;;5.73;4.70;;;;;;;16.51;66.76;101434.47;4977266;28;20212;-75
2023/07/08 00:10:27;;;;;;;5.03;4.30;;;;;;;16.47;66.84;101426.41;4955873;28;20229;-75
2023/07/08 00:12:56;;;;;;;5.73;4.53;;;;;;;16.46;67.16;101430.16;4974827;28;20218;-75
2023/07/08 00:15:27;;;;;;;5.30;4.13;;;;;;;16.44;67.56;101434.28;4972636;28;20290;-75
2023/07/08 00:17:53;;;;;;;6.00;4.57;;;;;;;16.42;67.57;101432.00;4972209;28;20214;-75
2023/07/08 00:20:25;;;;;;;5.20;4.47;;;;;;;16.38;68.17;101427.63;4972813;28;20225;-78
2023/07/08 00:22:51;;;;;;;4.67;4.27;;;;;;;16.34;68.11;101432.88;4974628;28;20209;-75
2023/07/08 00:25:19;;;;;;;6.73;5.13;;;;;;;16.31;68.24;101432.81;4976368;28;20207;-75
2023/07/08 00:27:46;;;;;;;7.07;4.50;;;;;;;16.27;68.13;101430.06;4976379;28;20217;-75
2023/07/08 00:30:20;;;;;;;6.97;5.87;;;;;;;16.24;68.50;101421.97;4956793;28;20242;-78
2023/07/08 00:32:47;;;;;;;5.83;4.80;;;;;;;16.21;68.64;101423.44;4960508;28;20207;-77
2023/07/08 00:35:14;;;;;;;6.17;4.73;;;;;;;16.19;68.63;101428.31;4962016;28;20595;-78
2023/07/08 00:37:41;;;;;;;7.47;4.70;;;;;;;16.15;69.28;101426.69;4960410;28;20225;-75
2023/07/08 00:40:17;;;;;;;6.00;4.67;;;;;;;16.13;69.43;101428.91;4964981;28;20772;-75
2023/07/08 00:42:45;;;;;;;6.37;4.57;;;;;;;16.09;69.94;101428.81;4978991;28;20219;-77
2023/07/08 00:45:21;;;;;;;5.70;4.57;;;;;;;16.06;70.23;101428.72;4965837;28;20603;-75
2023/07/08 00:47:50;;;;;;;5.40;4.67;;;;;;;16.02;69.97;101427.84;4978198;28;20225;-75
2023/07/08 00:50:16;;;;;;;6.53;4.80;;;;;;;16.00;69.86;101424.75;4958499;28;20229;-75
2023/07/08 00:52:45;;;;;;;8.40;5.07;;;;;;;15.96;69.81;101424.66;4978369;28;20209;-75
2023/07/08 00:55:11;;;;;;;6.63;4.67;;;;;;;15.94;70.13;101423.47;4974760;28;20212;-76
2023/07/08 00:57:43;;;;;;;5.27;4.63;;;;;;;15.91;70.95;101424.13;4977623;28;20202;-76
2023/07/08 01:00:15;;;;;;;6.13;4.97;;;;;;;15.84;70.31;101422.03;4955765;28;20243;-76
2023/07/08 01:02:46;;;;;;;6.53;4.80;;;;;;;15.80;70.59;101426.53;4975275;28;20809;-75
2023/07/08 01:05:18;;;;;;;5.60;4.33;;;;;;;15.77;70.65;101423.75;4979895;28;20230;-76
2023/07/08 01:07:57;;;;;;;6.57;4.77;;;;;;;15.74;71.37;101419.09;4961649;28;20210;-76
2023/07/08 01:10:29;;;;;;;6.00;4.57;;;;;;;15.71;70.96;101422.44;4977201;28;20229;-75
2023/07/08 01:13:00;;;;;;;8.40;4.80;;;;;;;15.67;71.17;101427.66;4957841;28;20219;-75
2023/07/08 01:15:35;;;;;;;6.03;4.97;;;;;;;15.63;70.66;101421.47;4979913;28;20205;-76
2023/07/08 01:18:03;;;;;;;4.77;4.30;;;;;;;15.60;71.00;101422.16;4978450;28;20214;-75
2023/07/08 01:20:29;;;;;;;6.20;4.77;;;;;;;15.58;71.64;101429.69;4961887;28;20229;-76
2023/07/08 01:22:57;;;;;;;7.43;5.00;;;;;;;15.55;71.79;101424.28;4979744;28;20437;-76
2023/07/08 01:25:24;;;;;;;6.60;5.13;;;;;;;15.51;71.57;101410.88;4962166;28;20212;-76
2023/07/08 01:27:55;;;;;;;5.57;4.40;;;;;;;15.51;71.40;101407.41;4978592;28;20289;-75
2023/07/08 01:30:22;;;;;;;4.87;4.37;;;;;;;15.49;71.47;101399.00;4960465;28;20690;-76
2023/07/08 01:32:50;;;;;;;5.37;4.70;;;;;;;15.47;72.07;101395.91;4974774;28;20699;-76
2023/07/08 01:35:18;;;;;;;5.80;5.07;;;;;;;15.45;71.97;101398.91;4974787;28;20214;-76
2023/07/08 01:37:50;;;;;;;5.50;4.63;;;;;;;15.41;71.62;101394.59;4977536;28;20205;-75
2023/07/08 01:40:28;;;;;;;8.13;5.07;;;;;;;15.43;72.55;101387.06;4962468;28;20231;-76
2023/07/08 01:42:55;;;;;;;7.57;5.03;;;;;;;15.39;71.97;101391.50;4962876;28;20376;-76
2023/07/08 01:45:23;;;;;;;6.30;4.80;;;;;;;15.36;72.30;101390.28;4976219;28;20422;-76
2023/07/08 01:47:54;;;;;;;6.67;5.17;;;;;;;15.36;72.26;101392.19;4977626;28;20672;-75
2023/07/08 01:50:22;;;;;;;6.00;4.97;;;;;;;15.35;71.38;101395.94;4956544;28;20217;-76
2023/07/08 01:52:50;;;;;;;10.80;5.50;;;;;;;15.33;72.43;101392.84;4976280;28;20201;-75
2023/07/08 01:55:22;;;;;;;7.17;4.83;;;;;;;15.32;72.63;101392.03;4977812;28;20691;-75
2023/07/08 01:57:52;;;;;;;7.53;5.13;;;;;;;15.31;72.46;101397.72;4955950;28;20233;-75
2023/07/08 02:00:18;;;;;;;9.10;6.43;;;;;;;15.29;72.26;101398.03;4961336;28;20225;-76
2023/07/08 02:02:44;;;;;;;6.77;5.10;;;;;;;15.28;72.98;101404.47;4975215;28;20198;-76
2023/07/08 02:05:11;;;;;;;5.77;4.87;;;;;;;15.27;72.95;101405.56;4974474;28;20516;-76
2023/07/08 02:07:37;;;;;;;5.97;5.10;;;;;;;15.26;72.98;101406.69;4974148;28;21464;-76
2023/07/08 02:10:05;;;;;;;6.60;4.93;;;;;;;15.23;72.68;101398.59;4961056;28;20233;-76
2023/07/08 02:12:31;;;;;;;7.47;5.07;;;;;;;15.23;72.88;101404.72;4963065;28;20232;-75
2023/07/08 02:15:00;;;;;;;8.40;4.90;;;;;;;15.23;73.05;101399.38;4975982;28;20209;-75
2023/07/08 02:17:28;;;;;;;6.73;5.27;;;;;;;15.22;73.58;101399.72;4977772;28;20228;-76
2023/07/08 02:19:55;;;;;;;7.87;4.70;;;;;;;15.19;73.67;101401.16;4976271;28;20328;-75
2023/07/08 02:22:21;;;;;;;8.00;5.27;;;;;;;15.18;73.89;101410.28;4957125;28;20201;-76
2023/07/08 02:24:48;;;;;;;7.17;5.30;;;;;;;15.15;73.46;101410.13;4960733;28;20618;-76
2023/07/08 02:27:16;;;;;;;5.40;4.90;;;;;;;15.13;74.06;101409.72;4978739;28;20281;-76
2023/07/08 02:29:42;;;;;;;8.33;5.50;;;;;;;15.10;74.13;101413.03;4973539;28;20237;-75
2023/07/08 02:32:10;;;;;;;7.57;5.00;;;;;;;15.08;74.04;101408.06;4957548;28;20208;-76
2023/07/08 02:34:37;;;;;;;8.13;5.40;;;;;;;15.07;74.27;101411.81;4955572;28;20217;-76
2023/07/08 02:37:04;;;;;;;6.47;5.60;;;;;;;15.05;74.13;101411.38;4961571;28;20233;-76
2023/07/08 02:39:31;;;;;;;5.27;4.77;;;;;;;14.99;73.52;101402.09;4978944;28;20219;-75
2023/07/08 02:41:57;;;;;;;9.80;5.33;;;;;;;14.99;73.71;101407.41;4960500;28;20224;-76
2023/07/08 02:44:24;;;;;;;6.77;5.07;;;;;;;14.99;74.75;101411.94;4973392;28;20474;-75
2023/07/08 02:46:50;;;;;;;10.40;5.70;;;;;;;14.93;74.30;101406.09;4977429;28;20652;-75
2023/07/08 02:49:18;;;;;;;8.03;5.40;;;;;;;14.92;74.28;101406.41;4961192;28;20233;-76
2023/07/08 02:51:44;;;;;;;5.50;4.93;;;;;;;14.90;74.58;101398.75;4959826;28;20212;-76
2023/07/08 02:54:10;;;;;;;7.57;5.57;;;;;;;14.88;74.79;101398.34;4955674;28;20728;-76
2023/07/08 02:56:37;;;;;;;6.10;5.43;;;;;;;14.86;74.94;101403.19;4972588;28;20225;-76
2023/07/08 02:59:03;;;;;;;6.20;5.40;;;;;;;14.85;74.50;101411.53;4957542;28;20265;-76
2023/07/08 03:01:30;;;;;;;8.03;5.47;;;;;;;14.83;75.09;101408.41;4969519;28;20644;-76
2023/07/08 03:03:58;;;;;;;5.87;4.93;;;;;;;14.81;75.16;101407.97;4957560;28;20213;-75
2023/07/08 03:06:26;;;;;;;10.03;5.77;;;;;;;14.81;75.60;101405.31;4956823;28;20202;-77
2023/07/08 03:08:52;;;;;;;5.97;5.37;;;;;;;14.79;75.28;101404.84;4973390;28;20240;-75
2023/07/08 03:11:19;;;;;;;8.37;5.97;;;;;;;14.79;75.42;101399.53;4978337;28;20212;-75
2023/07/08 03:13:45;;;;;;;6.43;5.50;;;;;;;14.77;75.31;101402.56;4954304;28;20205;-75
2023/07/08 03:16:13;;;;;;;6.03;5.43;;;;;;;14.76;75.38;101405.53;4976488;28;20228;-76
2023/07/08 03:18:45;;;;;;;6.97;5.80;;;;;;;14.77;75.38;101407.09;4955635;28;20618;-76
2023/07/08 03:21:14;;;;;;;6.90;5.63;;;;;;;14.78;75.67;101403.31;4960160;28;20201;-76
2023/07/08 03:23:42;;;;;;;7.60;5.93;;;;;;;14.78;75.41;101403.31;4959211;28;20572;-75
2023/07/08 03:26:14;;;;;;;8.47;5.87;;;;;;;14.79;75.72;101402.97;4961431;28;20349;-76
2023/07/08 03:28:40;;;;;;;7.17;5.40;;;;;;;14.81;75.50;101406.06;4954365;28;20524;-75
2023/07/08 03:31:09;;;;;;;7.73;5.73;;;;;;;14.83;75.33;101397.78;4957789;28;20244;-76
2023/07/08 03:33:36;;;;;;;7.93;5.73;;;;;;;14.83;73.81;101405.75;4957197;28;20213;-76
2023/07/08 03:36:03;;;;;;;8.17;5.73;;;;;;;14.84;73.51;101404.63;4976867;28;20479;-76
2023/07/08 03:38:29;;;;;;;5.93;5.33;;;;;;;14.87;74.04;101402.09;4960587;28;20241;-76
2023/07/08 03:40:57;;;;;;;8.87;5.40;;;;;;;14.93;74.90;101399.97;4958843;28;20293;-76
2023/07/08 03:43:24;;;;;;;7.77;5.57;;;;;;;14.97;75.01;101406.97;4973408;28;20237;-76
2023/07/08 03:45:50;;;;;;;6.33;5.73;;;;;;;15.01;74.34;101401.75;4959015;28;20216;-77
2023/07/08 03:48:17;;;;;;;6.10;5.27;;;;;;;15.09;74.26;101411.47;4954110;28;20213;-76
2023/07/08 03:50:44;;;;;;;10.57;5.50;;;;;;;15.13;74.70;101410.50;4957426;28;20268;-76
2023/07/08 03:53:11;;;;;;;7.70;6.10;;;;;;;15.19;74.63;101414.47;4966446;28;20331;-75
2023/07/08 03:55:37;;;;;;;6.77;5.57;;;;;;;15.24;74.45;101414.25;4971843;28;20213;-76
2023/07/08 03:58:06;;;;;;;10.83;6.57;;;;;;;15.26;73.11;101406.69;4955795;28;20248;-75
2023/07/08 04:00:35;;;;;;;6.97;5.70;;;;;;;15.31;72.60;101411.78;4975556;28;20678;-75
2023/07/08 04:03:02;;;;;;;6.93;5.23;;;;;;;15.39;72.39;101413.56;4952626;28;20218;-76
2023/07/08 04:05:28;;;;;;;6.77;5.50;;;;;;;15.48;72.58;101421.41;4957239;28;20768;-76
2023/07/08 04:07:56;;;;;;;6.00;5.40;;;;;;;15.57;73.33;101425.47;4975002;28;20220;-76
2023/07/08 04:10:22;;;;;;;9.27;6.50;;;;;;;15.67;73.49;101421.56;4958399;28;20224;-75
2023/07/08 04:12:49;;;;;;;10.23;5.70;;;;;;;15.76;73.09;101422.97;4970924;28;20201;-76
2023/07/08 04:15:17;;;;;;;13.10;5.23;;;;;;;15.85;73.41;101428.94;4976234;28;20717;-76
2023/07/08 04:17:46;;;;;;;9.73;5.50;;;;;;;15.95;72.80;101431.13;4973257;28;20253;-76
2023/07/08 04:20:15;;;;;;;6.60;5.90;;;;;;;16.04;72.40;101425.63;4975280;28;20223;-76
2023/07/08 04:22:41;;;;;;;6.57;5.60;;;;;;;16.13;72.15;101427.00;4971467;28;20218;-75
2023/07/08 04:25:10;;;;;;;7.40;6.00;;;;;;;16.23;72.40;101431.84;4976228;28;20214;-76
2023/07/08 04:27:37;;;;;;;7.70;6.17;;;;;;;16.34;71.84;101424.88;4978136;28;20214;-76
2023/07/08 04:30:04;;;;;;;6.70;5.33;;;;;;;16.45;71.98;101422.53;4977624;28;20738;-76
2023/07/08 04:32:31;;;;;;;8.03;6.13;;;;;;;16.55;70.85;101428.09;4973191;28;20214;-76
2023/07/08 04:34:58;;;;;;;7.73;5.90;;;;;;;16.67;70.46;101424.59;4978879;28;20206;-76
2023/07/08 04:37:24;;;;;;;6.90;6.03;;;;;;;16.77;69.05;101424.81;4973349;28;20219;-76
2023/07/08 04:39:50;;;;;;;5.93;5.33;;;;;;;16.89;67.89;101423.94;4955986;28;20222;-76
2023/07/08 04:42:17;;;;;;;9.47;6.93;;;;;;;17.01;67.79;101424.63;4975455;28;20749;-76
2023/07/08 04:44:44;;;;;;;9.50;5.57;;;;;;;17.13;67.27;101421.81;4970169;28;20202;-76
2023/07/08 04:47:12;;;;;;;9.00;5.60;;;;;;;17.28;66.48;101422.91;4972333;28;20495;-76
2023/07/08 04:49:43;;;;;;;7.27;6.10;;;;;;;17.43;67.27;101422.88;4969180;28;20222;-77
2023/07/08 04:52:10;;;;;;;6.13;5.30;;;;;;;17.59;67.86;101420.91;4977146;28;20549;-76
2023/07/08 04:54:36;;;;;;;6.53;5.20;;;;;;;17.73;67.43;101420.41;4974431;28;20688;-76
2023/07/08 04:57:03;;;;;;;23.37;6.20;;;;;;;17.86;66.52;101413.81;4971852;28;20234;-76
2023/07/08 04:59:34;;;;;;;6.17;5.40;;;;;;;17.99;66.03;101428.53;4956630;28;20221;-75
2023/07/08 05:02:01;;;;;;;8.50;5.13;;;;;;;18.11;64.45;101423.81;4972802;28;20205;-76
2023/07/08 05:04:27;;;;;;;5.87;5.27;;;;;;;18.26;63.07;101427.53;4973942;28;20292;-76
2023/07/08 05:06:54;;;;;;;5.07;4.60;;;;;;;18.41;63.92;101423.97;4976849;28;20667;-76
2023/07/08 05:09:23;;;;;;;5.70;4.93;;;;;;;18.57;63.60;101422.72;4974797;28;20236;-76
2023/07/08 05:11:49;;;;;;;7.10;5.50;;;;;;;18.71;63.58;101424.84;4973482;28;20209;-76
2023/07/08 05:14:15;;;;;;;6.60;5.53;;;;;;;18.84;63.29;101426.94;4976072;28;20206;-77
2023/07/08 05:16:42;;;;;;;7.63;5.80;;;;;;;18.97;62.95;101430.19;4972927;28;20687;-76
2023/07/08 05:19:10;;;;;;;6.30;4.90;;;;;;;19.11;62.37;101431.19;4975176;28;20222;-76
2023/07/08 05:21:38;;;;;;;5.27;4.77;;;;;;;19.23;61.98;101433.66;4975087;28;20738;-76
2023/07/08 05:24:06;;;;;;;5.70;4.77;;;;;;;19.36;61.52;101426.19;4959402;28;20217;-76
2023/07/08 05:26:33;;;;;;;5.33;4.80;;;;;;;19.45;61.00;101427.44;4974227;28;20597;-76
2023/07/08 05:29:00;;;;;;;5.33;4.80;;;;;;;19.57;60.13;101431.81;4964143;28;20716;-76
2023/07/08 05:31:27;;;;;;;8.20;5.27;;;;;;;19.67;60.02;101439.94;4959119;28;20217;-76
2023/07/08 05:33:53;;;;;;;6.17;5.23;;;;;;;19.77;59.25;101435.88;4961167;28;20206;-76
2023/07/08 05:36:19;;;;;;;5.57;4.70;;;;;;;19.88;58.83;101440.19;4968057;28;20205;-76
2023/07/08 05:38:46;;;;;;;6.40;4.87;;;;;;;19.98;58.52;101439.53;4976068;28;21472;-76
2023/07/08 05:41:13;;;;;;;5.03;4.50;;;;;;;20.11;58.31;101443.53;4978595;28;20205;-76
2023/07/08 05:43:40;;;;;;;7.87;5.37;;;;;;;20.21;58.06;101439.41;4975334;28;20201;-76
2023/07/08 05:46:06;;;;;;;7.47;4.63;;;;;;;20.32;58.12;101435.69;4982103;28;20209;-76
2023/07/08 05:48:32;;;;;;;6.63;4.80;;;;;;;20.40;57.38;101431.94;4971615;28;20233;-76
2023/07/08 05:50:59;;;;;;;5.90;4.70;;;;;;;20.51;57.38;101432.78;4977390;28;20213;-76
2023/07/08 05:53:25;;;;;;;6.03;4.57;;;;;;;20.62;56.82;101430.19;4959028;28;20201;-76
2023/07/08 05:55:52;;;;;;;5.07;4.43;;;;;;;20.71;56.43;101434.09;4960280;28;20205;-76
2023/07/08 05:58:19;;;;;;;6.13;4.93;;;;;;;20.82;56.24;101434.16;4977077;28;20221;-76
2023/07/08 06:00:46;;;;;;;5.73;4.50;;;;;;;20.91;56.16;101442.69;4973537;28;20209;-76
2023/07/08 06:03:12;;;;;;;5.07;4.33;;;;;;;21.03;55.13;101443.16;4971002;28;20213;-76
2023/07/08 06:05:38;;;;;;;8.57;4.57;;;;;;;21.14;55.18;101440.53;4979365;28;20202;-76
2023/07/08 06:08:07;;;;;;;4.93;4.47;;;;;;;21.23;55.17;101439.06;4972852;28;20220;-76
2023/07/08 06:10:33;;;;;;;4.53;4.10;;;;;;;21.34;54.44;101442.56;4958052;28;20229;-75
2023/07/08 06:12:59;;;;;;;7.40;4.27;;;;;;;21.45;53.70;101442.59;4975562;28;20221;-76
2023/07/08 06:15:27;;;;;;;6.10;4.30;;;;;;;21.56;53.84;101454.16;4960315;28;20569;-75
2023/07/08 06:17:53;;;;;;;5.50;4.20;;;;;;;21.66;54.07;101451.53;4970014;28;20225;-75
2023/07/08 06:20:20;;;;;;;7.77;4.17;;;;;;;21.77;52.43;101448.88;4975971;28;20221;-76
2023/07/08 06:22:46;;;;;;;5.43;4.30;;;;;;;21.89;52.93;101453.94;4960538;28;20207;-76
2023/07/08 06:25:12;;;;;;;5.13;4.10;;;;;;;22.01;52.79;101446.28;4979469;28;20201;-76
2023/07/08 06:27:39;;;;;;;5.47;4.03;;;;;;;22.12;51.44;101443.59;4969771;28;20280;-76
2023/07/08 06:30:07;;;;;;;6.77;3.60;;;;;;;22.23;51.30;101453.25;4973662;28;20230;-76
2023/07/08 06:32:34;;;;;;;4.60;4.00;;;;;;;22.34;51.77;101456.69;4969430;28;20200;-76
2023/07/08 06:35:01;;;;;;;5.20;3.60;;;;;;;22.45;51.50;101460.19;4976186;28;20202;-76
2023/07/08 06:37:27;;;;;;;4.57;3.73;;;;;;;22.58;52.08;101446.38;4976658;28;20234;-75
2023/07/08 06:39:53;;;;;;;5.03;3.67;;;;;;;22.71;49.69;101448.28;4960578;28;20236;-76
2023/07/08 06:42:20;;;;;;;4.87;3.67;;;;;;;22.82;48.63;101449.78;4969474;28;20830;-76
2023/07/08 06:44:55;;;;;;;5.03;3.37;;;;;;;22.95;49.42;101448.25;4957372;28;21708;-76
2023/07/08 06:47:22;;;;;;;4.83;3.13;;;;;;;23.06;48.78;101449.00;4960855;28;20193;-76
2023/07/08 06:49:50;;;;;;;6.87;3.70;;;;;;;23.15;49.87;101453.97;4968232;28;21344;-76
2023/07/08 06:52:16;;;;;;;5.17;2.97;;;;;;;23.26;48.19;101456.69;4979702;28;20209;-76
2023/07/08 06:54:42;;;;;;;3.95;3.05;;;;;;;23.36;48.16;101453.19;4972553;28;20336;-76
2023/07/08 06:57:09;;;;;;;3.97;3.33;;;;;;;23.44;48.81;101450.81;4971169;28;20205;-76
2023/07/08 06:59:36;;;;;;;6.20;3.47;;;;;;;23.52;47.60;101444.25;4971176;28;20233;-75
2023/07/08 07:02:02;;;;;;;4.50;3.47;;;;;;;23.65;47.04;101450.72;4974222;28;20204;-76
2023/07/08 07:04:30;;;;;;;6.93;3.35;;;;;;;23.74;45.94;101453.03;4980965;28;20216;-75
2023/07/08 07:06:58;;;;;;;3.78;3.20;;;;;;;23.83;47.05;101456.81;4976599;28;21723;-76
2023/07/08 07:09:24;;;;;;;5.50;3.40;;;;;;;23.93;46.49;101452.56;4978991;28;20222;-76
2023/07/08 07:11:51;;;;;;;5.25;3.35;;;;;;;24.02;46.06;101444.78;4955185;28;20224;-76
2023/07/08 07:14:17;;;;;;;5.25;3.05;;;;;;;24.10;46.33;101450.91;4956837;28;20212;-76
2023/07/08 07:16:44;;;;;;;3.92;3.53;;;;;;;24.18;44.90;101445.06;4969052;28;20228;-76
2023/07/08 07:19:10;;;;;;;5.15;3.17;;;;;;;24.27;44.94;101440.00;4976836;28;20738;-76
2023/07/08 07:21:36;;;;;;;4.78;3.67;;;;;;;24.37;44.71;101441.84;4972990;28;20216;-76
2023/07/08 07:24:06;;;;;;;4.05;3.20;;;;;;;24.48;45.91;101452.56;4975851;28;20675;-76
2023/07/08 07:26:33;;;;;;;5.85;2.95;;;;;;;24.58;45.95;101449.00;4976465;28;20283;-76
2023/07/08 07:28:59;;;;;;;3.60;2.90;;;;;;;24.69;44.69;101438.91;4961120;28;20236;-76
2023/07/08 07:31:26;;;;;;;3.53;3.22;;;;;;;24.80;45.80;101439.56;4962570;28;20205;-76
2023/07/08 07:33:52;;;;;;;4.70;3.10;;;;;;;24.92;41.11;101447.94;4961384;28;20212;-76
2023/07/08 07:36:18;;;;;;;3.60;2.85;;;;;;;25.02;41.96;101441.66;4977156;28;20205;-76
2023/07/08 07:38:45;;;;;;;4.25;3.10;;;;;;;25.12;43.86;101442.72;4974810;28;20228;-76
2023/07/08 07:41:12;;;;;;;4.28;2.90;;;;;;;25.22;42.69;101437.19;4976452;28;20626;-77
2023/07/08 07:43:39;;;;;;;3.40;2.58;;;;;;;25.35;43.53;101442.88;4974461;28;20213;-76
2023/07/08 07:46:05;;;;;;;6.05;3.28;;;;;;;25.47;41.88;101436.91;4957060;28;20212;-76
2023/07/08 07:48:32;;;;;;;3.30;2.78;;;;;;;25.58;41.42;101434.88;4973819;28;20233;-76
2023/07/08 07:50:58;;;;;;;5.22;3.22;;;;;;;25.66;40.81;101426.25;4958559;28;20232;-76
2023/07/08 07:53:24;;;;;;;4.10;2.75;;;;;;;25.75;41.31;101429.19;4978712;28;20540;-76
2023/07/08 07:55:57;;;;;;;4.10;3.03;;;;;;;25.86;39.21;101424.44;4974152;28;22421;-76
2023/07/08 07:58:24;;;;;;;4.43;3.15;;;;;;;25.97;40.99;101427.78;4971797;28;20221;-76
2023/07/08 08:00:51;;;;;;;3.10;2.80;;;;;;;26.05;38.96;101418.34;4975872;28;20966;-78
2023/07/08 08:03:17;;;;;;;4.28;3.33;;;;;;;26.14;41.27;101429.44;4964819;28;20212;-78
2023/07/08 08:05:43;;;;;;;4.40;3.08;;;;;;;26.23;39.41;101423.50;4977073;28;20209;-78
2023/07/08 08:08:10;;;;;;;3.90;2.80;;;;;;;26.32;40.17;101426.47;4982603;28;20201;-78
2023/07/08 08:10:36;;;;;;;3.47;2.90;;;;;;;26.40;39.96;101428.63;4983629;28;20202;-78
2023/07/08 08:13:03;;;;;;;4.25;2.90;;;;;;;26.51;40.74;101440.06;4981730;28;20671;-77
2023/07/08 08:15:31;;;;;;;4.38;2.90;;;;;;;26.60;40.11;101432.19;4983969;28;20212;-78
2023/07/08 08:17:57;;;;;;;4.45;2.90;;;;;;;26.70;38.82;101433.97;4976920;28;20280;-78
2023/07/08 08:20:25;;;;;;;6.15;3.22;;;;;;;26.78;38.41;101434.59;4964178;28;20228;-78
2023/07/08 08:22:52;;;;;;;5.18;3.40;;;;;;;26.89;37.58;101425.06;4979702;28;21351;-78
2023/07/08 08:25:20;;;;;;;5.45;2.88;;;;;;;26.99;36.05;101439.63;4979458;28;20245;-76
2023/07/08 08:27:47;;;;;;;2.85;2.47;;;;;;;27.06;38.50;101436.78;4972293;28;20266;-75
2023/07/08 08:30:14;;;;;;;5.85;2.70;;;;;;;27.14;36.50;101433.50;4958149;28;20724;-75
2023/07/08 08:32:41;;;;;;;3.30;2.65;;;;;;;27.22;35.18;101429.50;4973089;28;20228;-76
2023/07/08 08:35:08;;;;;;;4.40;2.92;;;;;;;27.31;36.22;101427.00;4973647;28;20667;-76
2023/07/08 08:37:34;;;;;;;6.82;2.90;;;;;;;27.44;36.86;101436.03;4978634;28;20205;-78
2023/07/08 08:40:01;;;;;;;3.65;2.90;;;;;;;27.52;36.79;101437.44;4977380;28;20225;-78
2023/07/08 08:42:31;;;;;;;3.58;2.67;;;;;;;27.61;35.09;101434.13;4979255;28;20210;-77
2023/07/08 08:45:00;;;;;;;3.55;2.75;;;;;;;27.70;35.00;101435.09;4975891;28;20276;-77
2023/07/08 08:47:35;;;;;;;3.28;2.97;;;;;;;27.82;34.66;101434.44;4963343;28;20221;-78
2023/07/08 08:50:17;;;;;;;4.03;2.60;;;;;;;27.90;32.78;101435.84;4970101;28;20235;-76
2023/07/08 08:52:43;;;;;;;8.38;2.90;;;;;;;28.01;35.68;101439.06;4965362;28;20240;-76
2023/07/08 08:55:12;;;;;;;3.10;2.72;;;;;;;28.13;34.82;101440.34;4970996;28;20212;-75
2023/07/08 08:57:46;;;;;;;4.47;2.40;;;;;;;28.25;33.19;101437.72;4971018;28;20228;-76
2023/07/08 09:00:17;;;;;;;4.25;2.15;;;;;;;28.34;31.53;101442.56;4975483;28;20251;-76
2023/07/08 09:02:58;;;;;;;4.50;2.60;;;;;;;28.43;31.03;101438.06;4969107;28;20209;-76
2023/07/08 09:05:26;;;;;;;7.05;2.22;;;;;;;28.47;30.26;101432.53;4977174;28;20212;-75
2023/07/08 09:08:04;;;;;;;2.97;2.35;;;;;;;28.50;33.79;101437.91;4976368;28;20219;-76
2023/07/08 09:10:43;;;;;;;3.08;2.20;;;;;;;28.57;32.31;101429.56;4973773;28;20234;-76
2023/07/08 09:13:17;;;;;;;3.95;2.17;;;;;;;28.63;29.82;101427.84;4974344;28;20579;-76
2023/07/08 09:15:43;;;;;;;3.65;2.47;;;;;;;28.70;33.14;101433.09;4958587;28;20236;-76
2023/07/08 09:18:19;;;;;;;2.92;2.10;;;;;;;28.81;30.64;101424.69;4974523;28;20236;-76
2023/07/08 09:20:47;;;;;;;3.83;2.40;;;;;;;28.89;29.87;101429.50;4976587;28;20223;-76
2023/07/08 09:23:21;;;;;;;3.20;2.40;;;;;;;28.96;30.78;101432.00;4972104;28;20205;-75
2023/07/08 09:25:51;;;;;;;3.13;2.35;;;;;;;28.98;31.21;101432.41;4974010;28;20209;-75
2023/07/08 09:28:18;;;;;;;3.45;2.65;;;;;;;29.08;29.76;101427.84;4973093;28;20216;-75
2023/07/08 09:30:48;;;;;;;2.70;2.33;;;;;;;29.13;30.98;101425.38;4971856;28;20201;-76
2023/07/08 09:33:14;;;;;;;3.80;2.40;;;;;;;29.20;28.94;101419.72;4970749;28;20213;-75
2023/07/08 09:35:44;;;;;;;3.20;2.20;;;;;;;29.24;28.85;101425.84;4974251;28;20216;-76
2023/07/08 09:38:16;;;;;;;3.60;2.13;;;;;;;29.28;29.45;101420.28;4969420;28;20197;-76
2023/07/08 09:40:48;;;;;;;2.88;2.30;;;;;;;29.33;30.35;101411.59;4976680;28;20205;-75
2023/07/08 09:43:24;;;;;;;2.75;1.98;;;;;;;29.36;26.83;101416.91;4959763;28;20216;-75
2023/07/08 09:45:50;;;;;;;5.65;2.72;;;;;;;29.45;26.43;101411.59;4973369;28;20224;-76
2023/07/08 09:48:21;;;;;;;3.03;2.10;;;;;;;29.50;27.57;101419.22;4970944;28;20197;-75
2023/07/08 09:50:50;;;;;;;2.35;1.92;;;;;;;29.55;27.28;101413.28;4972033;28;20220;-76
2023/07/08 09:53:17;;;;;;;2.50;2.28;;;;;;;29.62;27.54;101415.78;4972865;28;20217;-76
2023/07/08 09:55:45;;;;;;;3.30;2.38;;;;;;;29.67;28.87;101419.94;4967182;28;20209;-75
2023/07/08 09:58:15;;;;;;;3.70;2.40;;;;;;;29.68;25.73;101411.31;4952127;28;20209;-75
2023/07/08 10:00:43;;;;;;;2.40;2.00;;;;;;;29.73;25.13;101405.31;4958230;28;20205;-76
2023/07/08 10:03:18;;;;;;;3.17;2.20;;;;;;;29.79;24.88;101411.78;4971875;28;20210;-76
2023/07/08 10:05:48;;;;;;;2.28;2.00;;;;;;;29.84;26.94;101413.94;4971720;28;20209;-75
2023/07/08 10:08:19;;;;;;;7.03;2.10;;;;;;;29.88;25.18;101409.13;4969275;28;20283;-75
2023/07/08 10:10:48;;;;;;;5.22;2.30;;;;;;;29.93;24.24;101414.03;4971420;28;20281;-76
2023/07/08 10:13:20;;;;;;;2.53;2.00;;;;;;;29.97;25.15;101416.66;4968850;28;20238;-75
2023/07/08 10:15:50;;;;;;;3.03;2.30;;;;;;;30.00;24.79;101416.56;4972108;28;20201;-76
2023/07/08 10:18:22;;;;;;;2.30;2.08;;;;;;;30.03;27.09;101407.50;4956985;28;20212;-76
2023/07/08 10:21:06;;;;;;;5.13;2.53;;;;;;;30.12;25.49;101409.56;4966213;28;20611;-75
2023/07/08 10:23:44;;;;;;;2.60;2.20;;;;;;;30.19;25.60;101399.22;4966971;28;20205;-75
2023/07/08 10:26:18;;;;;;;2.95;2.28;;;;;;;30.22;26.66;101409.25;4971063;28;20206;-76
2023/07/08 10:28:48;;;;;;;2.60;1.92;;;;;;;30.26;25.05;101406.41;4970556;28;20233;-75
2023/07/08 10:31:26;;;;;;;3.50;2.05;;;;;;;30.28;26.42;101403.97;4968639;28;20217;-75
2023/07/08 10:34:14;;;;;;;2.38;2.00;;;;;;;30.29;23.86;101395.38;4969599;28;20209;-74
2023/07/08 10:36:50;;;;;;;3.13;2.53;;;;;;;30.32;24.30;101396.44;4968461;28;20276;-75
2023/07/08 10:39:38;;;;;;;2.67;2.25;;;;;;;30.34;23.42;101397.53;4972854;28;20588;-75
2023/07/08 10:42:17;;;;;;;3.90;2.42;;;;;;;30.40;23.72;101401.22;4970466;28;20292;-75
2023/07/08 10:44:55;;;;;;;3.13;2.58;;;;;;;30.43;23.98;101388.69;4974421;28;20574;-75
2023/07/08 10:47:36;;;;;;;2.90;2.45;;;;;;;30.46;23.34;101385.81;4973439;28;20217;-76
2023/07/08 10:50:19;;;;;;;4.00;2.78;;;;;;;30.50;24.43;101393.91;4968586;28;20240;-75
2023/07/08 10:52:54;;;;;;;2.78;2.35;;;;;;;30.57;25.23;101383.53;4974535;28;20293;-76
2023/07/08 10:55:36;;;;;;;2.75;2.22;;;;;;;30.67;24.99;101384.38;4975870;28;20200;-75
2023/07/08 10:58:28;;;;;;;2.13;1.90;;;;;;;30.73;24.93;101386.09;4970914;28;20700;-75
2023/07/08 11:01:01;;;;;;;3.95;2.40;;;;;;;30.78;23.74;101377.34;4955712;28;20601;-74
2023/07/08 11:03:52;;;;;;;3.25;2.70;;;;;;;30.80;21.85;101377.66;4974534;28;20210;-75
2023/07/08 11:06:23;;;;;;;4.18;2.33;;;;;;;30.80;24.08;101376.88;4976912;28;20615;-75
2023/07/08 11:08:54;;;;;;;5.47;2.67;;;;;;;30.84;22.84;101377.53;4968029;28;20232;-75
2023/07/08 11:11:33;;;;;;;2.58;2.25;;;;;;;30.85;22.72;101371.63;4974571;28;20570;-76
2023/07/08 11:14:10;;;;;;;4.15;2.72;;;;;;;30.89;23.95;101377.72;4976642;28;20214;-75
2023/07/08 11:16:42;;;;;;;3.10;2.10;;;;;;;30.93;21.76;101364.72;4976500;28;20268;-75
2023/07/08 11:19:13;;;;;;;4.00;2.10;;;;;;;30.98;21.69;101363.38;4975904;28;20229;-75
2023/07/08 11:21:42;;;;;;;3.08;2.53;;;;;;;30.99;21.90;101362.16;4978486;28;20210;-76
2023/07/08 11:24:19;;;;;;;3.00;2.45;;;;;;;31.03;22.18;101360.06;4975540;28;20201;-76
2023/07/08 11:26:51;;;;;;;2.72;2.40;;;;;;;31.08;21.78;101359.50;4977170;28;20719;-75
2023/07/08 11:29:21;;;;;;;4.68;2.65;;;;;;;31.12;22.56;101360.88;4976064;28;20236;-75
2023/07/08 11:31:49;;;;;;;2.65;2.38;;;;;;;31.16;23.38;101352.53;4973515;28;20225;-74